createdAt,value
2019-02-14T00:04:51.606Z,99.90
2019-02-14T00:09:52.734Z,99.90
2019-02-14T00:14:53.927Z,99.90
2019-02-14T00:19:55.044Z,99.90
2019-02-14T00:24:56.143Z,99.90
2019-02-14T00:29:58.105Z,99.90
2019-02-14T00:34:59.219Z,99.90
2019-02-14T00:40:00.344Z,99.90
2019-02-14T00:45:01.608Z,99.90
2019-02-14T00:50:04.503Z,99.90
2019-02-14T00:55:05.699Z,99.90
2019-02-14T01:00:08.692Z,99.90
2019-02-14T01:05:09.796Z,99.90
2019-02-14T01:10:11.105Z,99.90
2019-02-14T01:15:13.897Z,99.90
2019-02-14T01:20:15.128Z,99.90
2019-02-14T01:25:16.229Z,99.90
2019-02-14T01:30:17.323Z,99.90
2019-02-14T01:35:18.423Z,99.90
2019-02-14T01:40:19.523Z,99.90
2019-02-14T01:45:20.632Z,99.90
2019-02-14T01:50:21.722Z,99.90
2019-02-14T01:55:22.804Z,99.90
2019-02-14T02:00:23.899Z,99.90
2019-02-14T02:05:25.089Z,99.90
2019-02-14T02:10:26.305Z,99.90
2019-02-14T02:15:27.391Z,99.90
2019-02-14T02:20:33.329Z,99.90
2019-02-14T02:25:31.607Z,99.90
2019-02-14T02:30:32.703Z,99.90
2019-02-14T02:35:33.899Z,99.90
2019-02-14T02:40:35.122Z,99.90
2019-02-14T02:45:36.222Z,99.90
2019-02-14T02:50:37.314Z,99.90
2019-02-14T02:55:38.399Z,99.90
2019-02-14T03:00:39.496Z,99.90
2019-02-14T03:05:40.599Z,99.90
2019-02-14T03:10:41.719Z,99.90
2019-02-14T03:15:42.812Z,99.90
2019-02-14T03:20:43.924Z,99.90
2019-02-14T03:25:45.016Z,99.90
2019-02-14T03:30:46.142Z,99.90
2019-02-14T03:35:47.227Z,99.90
2019-02-14T03:40:48.322Z,99.90
2019-02-14T03:45:49.424Z,99.90
2019-02-14T03:50:50.720Z,99.90
2019-02-14T03:55:51.811Z,99.90
2019-02-14T04:00:52.912Z,99.90
2019-02-14T04:05:54.013Z,99.90
2019-02-14T04:10:55.119Z,99.90
2019-02-14T04:15:56.215Z,99.90
2019-02-14T04:20:57.333Z,99.90
2019-02-14T04:25:58.418Z,99.90
2019-02-14T04:30:59.527Z,99.90
2019-02-14T04:36:00.628Z,99.90
2019-02-14T04:41:01.727Z,99.90
2019-02-14T04:46:02.823Z,99.90
2019-02-14T04:51:03.923Z,99.90
2019-02-14T04:56:05.142Z,99.90
2019-02-14T05:01:06.261Z,99.90
2019-02-14T05:06:07.351Z,99.90
2019-02-14T05:11:08.459Z,99.90
2019-02-14T05:16:09.552Z,99.90
2019-02-14T05:21:10.670Z,99.90
2019-02-14T05:26:11.756Z,99.90
2019-02-14T05:31:12.853Z,99.90
2019-02-14T05:36:13.947Z,99.90
2019-02-14T05:41:15.176Z,99.90
2019-02-14T05:46:16.293Z,99.90
2019-02-14T05:51:17.378Z,99.90
2019-02-14T05:56:18.483Z,99.90
2019-02-14T06:01:20.011Z,99.90
2019-02-14T06:06:21.289Z,99.90
2019-02-14T06:11:22.400Z,99.90
2019-02-14T06:16:23.496Z,99.90
2019-02-14T06:21:24.628Z,99.90
2019-02-14T06:26:25.715Z,99.90
2019-02-14T06:31:26.823Z,99.90
2019-02-14T06:36:27.930Z,99.90
2019-02-14T06:41:29.023Z,99.90
2019-02-14T06:46:30.120Z,99.90
2019-02-14T06:51:31.212Z,99.90
2019-02-14T06:56:32.356Z,99.90
2019-02-14T07:01:33.453Z,99.90
2019-02-14T07:06:34.565Z,99.90
2019-02-14T07:11:35.691Z,99.90
2019-02-14T07:16:36.823Z,99.90
2019-02-14T07:21:37.926Z,99.90
2019-02-14T07:26:39.147Z,99.90
2019-02-14T07:31:40.263Z,99.90
2019-02-14T07:36:41.375Z,99.90
2019-02-14T07:41:42.442Z,99.90
2019-02-14T07:46:43.556Z,99.90
2019-02-14T07:51:44.647Z,99.90
2019-02-14T07:56:45.750Z,99.90
2019-02-14T08:01:46.862Z,99.90
2019-02-14T08:06:48.135Z,99.90
2019-02-14T08:11:49.355Z,99.90
2019-02-14T08:16:50.464Z,99.90
2019-02-14T08:21:51.579Z,99.90
2019-02-14T08:26:52.687Z,99.90
2019-02-14T08:31:54.254Z,95.00
2019-02-14T08:36:55.359Z,66.30
2019-02-14T08:41:56.443Z,54.40
2019-02-14T08:46:57.543Z,53.00
2019-02-14T08:51:58.639Z,54.70
2019-02-14T08:56:59.754Z,56.70
2019-02-14T09:02:00.852Z,52.70
2019-02-14T09:07:02.064Z,53.40
2019-02-14T09:12:03.215Z,50.40
2019-02-14T09:17:04.300Z,49.10
2019-02-14T09:22:05.406Z,48.10
2019-02-14T09:27:06.519Z,47.10
2019-02-14T09:32:07.726Z,41.30
2019-02-14T09:37:08.816Z,41.60
2019-02-14T09:42:09.916Z,39.80
2019-02-14T09:47:11.017Z,39.30
2019-02-14T09:52:12.107Z,37.00
2019-02-14T09:57:13.296Z,42.70
2019-02-14T10:02:14.428Z,41.20
2019-02-14T10:07:15.546Z,40.60
2019-02-14T10:12:16.739Z,36.90
2019-02-14T10:17:22.312Z,39.20
2019-02-14T10:22:20.880Z,39.60
2019-02-14T10:27:22.078Z,39.50
2019-02-14T10:32:23.196Z,41.30
2019-02-14T10:37:24.394Z,40.70
2019-02-14T10:42:25.494Z,36.10
2019-02-14T10:47:26.622Z,32.50
2019-02-14T10:52:27.804Z,33.10
2019-02-14T10:57:28.921Z,29.70
2019-02-14T11:02:30.124Z,29.10
2019-02-14T11:07:31.255Z,29.60
2019-02-14T11:12:32.368Z,34.80
2019-02-14T11:17:33.468Z,32.70
2019-02-14T11:22:34.596Z,36.30
2019-02-14T11:27:35.716Z,39.10
2019-02-14T11:32:36.941Z,38.60
2019-02-14T11:37:38.036Z,37.50
2019-02-14T11:42:39.139Z,35.30
2019-02-14T11:47:40.235Z,34.20
2019-02-14T11:52:41.343Z,35.30
2019-02-14T11:57:42.452Z,32.60
2019-02-14T12:02:43.553Z,30.50
2019-02-14T12:07:44.655Z,29.70
2019-02-14T12:12:45.766Z,32.90
2019-02-14T12:17:46.975Z,36.90
2019-02-14T12:22:48.136Z,40.20
2019-02-14T12:27:49.250Z,41.20
2019-02-14T12:32:50.357Z,40.10
2019-02-14T12:37:51.508Z,40.00
2019-02-14T12:42:52.698Z,39.00
2019-02-14T12:47:53.981Z,37.20
2019-02-14T12:52:55.079Z,38.60
2019-02-14T12:57:56.179Z,38.40
2019-02-14T13:02:57.267Z,41.40
2019-02-14T13:07:58.355Z,41.80
2019-02-14T13:12:59.472Z,41.60
2019-02-14T13:18:00.572Z,42.30
2019-02-14T13:23:01.691Z,40.20
2019-02-14T13:28:02.799Z,39.00
2019-02-14T13:33:04.008Z,39.30
2019-02-14T13:38:05.118Z,34.10
2019-02-14T13:43:06.244Z,35.10
2019-02-14T13:48:07.440Z,37.80
2019-02-14T13:53:08.677Z,38.40
2019-02-14T13:58:09.767Z,36.70
2019-02-14T14:03:11.066Z,36.50
2019-02-14T14:08:12.191Z,35.50
2019-02-14T14:13:13.297Z,35.50
2019-02-14T14:18:14.399Z,35.20
2019-02-14T14:23:15.520Z,34.60
2019-02-14T14:28:16.637Z,30.30
2019-02-14T14:33:17.768Z,26.70
2019-02-14T14:38:18.876Z,26.50
2019-02-14T14:43:24.868Z,25.40
2019-02-14T14:48:27.881Z,24.40
2019-02-14T14:53:28.976Z,24.50
2019-02-14T14:58:30.079Z,23.20
2019-02-14T15:03:31.187Z,22.80
2019-02-14T15:08:32.288Z,21.80
2019-02-14T15:13:33.407Z,22.20
2019-02-14T15:18:34.528Z,22.40
2019-02-14T15:23:35.654Z,22.90
2019-02-14T15:28:37.519Z,23.70
2019-02-14T15:33:38.882Z,25.80
2019-02-14T15:38:39.987Z,29.20
2019-02-14T15:43:41.219Z,30.30
2019-02-14T15:48:42.408Z,29.50
2019-02-14T15:53:45.635Z,29.60
2019-02-14T15:58:46.628Z,31.30
2019-02-14T16:03:47.771Z,36.40
2019-02-14T16:08:48.995Z,41.70
2019-02-14T16:13:50.223Z,47.00
2019-02-14T16:18:51.361Z,51.80
2019-02-14T16:23:53.139Z,55.80
2019-02-14T16:28:55.634Z,60.70
2019-02-14T16:33:56.730Z,76.30
2019-02-14T16:38:58.812Z,97.00
2019-02-14T16:44:00.855Z,99.90
2019-02-14T16:49:01.932Z,99.90
2019-02-14T16:54:03.049Z,99.90
2019-02-14T16:59:04.160Z,99.90
2019-02-14T17:04:05.287Z,99.90
2019-02-14T17:09:06.520Z,99.90
2019-02-14T17:14:07.630Z,99.90
2019-02-14T17:19:08.738Z,99.90
2019-02-14T17:24:09.949Z,99.90
2019-02-14T17:29:11.080Z,99.90
2019-02-14T17:34:12.275Z,99.90
2019-02-14T17:39:13.382Z,99.90
2019-02-14T17:44:14.483Z,99.90
2019-02-14T17:49:15.610Z,99.90
2019-02-14T17:54:18.656Z,99.90
2019-02-14T17:59:19.872Z,99.90
2019-02-14T18:04:20.986Z,99.90
2019-02-14T18:09:22.120Z,99.90
2019-02-14T18:14:23.228Z,99.90
2019-02-14T18:19:24.365Z,99.90
2019-02-14T18:24:25.528Z,99.90
2019-02-14T18:29:26.723Z,99.90
2019-02-14T18:34:27.854Z,99.90
2019-02-14T18:39:28.998Z,99.90
2019-02-14T18:44:30.134Z,99.90
2019-02-14T18:49:31.277Z,99.90
2019-02-14T18:54:32.406Z,99.90
2019-02-14T18:59:33.610Z,99.90
2019-02-14T19:04:34.746Z,99.90
2019-02-14T19:09:35.889Z,99.90
2019-02-14T19:14:37.017Z,99.90
2019-02-14T19:19:38.231Z,99.90
2019-02-14T19:24:39.384Z,99.90
2019-02-14T19:29:40.525Z,99.90
2019-02-14T19:34:41.715Z,99.90
2019-02-14T19:39:43.056Z,99.90
2019-02-14T19:44:44.259Z,99.90
2019-02-14T19:49:45.601Z,99.90
2019-02-14T19:54:46.788Z,99.90
2019-02-14T19:59:48.184Z,99.90
2019-02-14T20:04:49.415Z,99.90
2019-02-14T20:09:50.548Z,99.90
2019-02-14T20:14:51.760Z,99.90
2019-02-14T20:19:52.871Z,99.90
2019-02-14T20:24:54.017Z,99.90
2019-02-14T20:29:55.121Z,99.90
2019-02-14T20:34:56.244Z,99.90
2019-02-14T20:39:57.348Z,99.90
2019-02-14T20:44:58.451Z,99.90
2019-02-14T20:49:59.565Z,99.90
2019-02-14T20:55:00.672Z,99.90
2019-02-14T21:00:03.209Z,99.90
2019-02-14T21:05:04.824Z,99.90
2019-02-14T21:10:06.461Z,99.90
2019-02-14T21:15:08.179Z,99.90
2019-02-14T21:20:11.136Z,99.90
2019-02-14T21:25:13.425Z,99.90
2019-02-14T21:30:18.931Z,99.90
2019-02-14T21:35:20.121Z,99.90
2019-02-14T21:40:21.423Z,99.90
2019-02-14T21:45:22.623Z,99.90
2019-02-14T21:50:23.859Z,99.90
2019-02-14T21:55:25.205Z,99.90
2019-02-14T22:00:27.612Z,99.90
2019-02-14T22:05:28.915Z,99.90
2019-02-14T22:10:30.111Z,99.90
2019-02-14T22:15:31.208Z,99.90
2019-02-14T22:20:32.317Z,99.90
2019-02-14T22:25:33.453Z,99.90
2019-02-14T22:30:34.572Z,99.90
2019-02-14T22:35:35.768Z,99.90
2019-02-14T22:40:36.883Z,99.90
2019-02-14T22:45:37.996Z,99.90
2019-02-14T22:50:39.082Z,99.90
2019-02-14T22:55:40.307Z,99.90
2019-02-14T23:00:48.132Z,99.90
2019-02-14T23:05:49.341Z,99.90
2019-02-14T23:10:50.484Z,99.90
2019-02-14T23:15:51.576Z,99.90
2019-02-14T23:20:52.793Z,99.90
2019-02-14T23:25:53.916Z,99.90
2019-02-14T23:30:55.015Z,99.90
2019-02-14T23:35:56.115Z,99.90
2019-02-14T23:40:57.220Z,99.90
2019-02-14T23:45:58.314Z,99.90
2019-02-14T23:50:59.422Z,99.90
2019-02-14T23:56:00.535Z,99.90
